• Join FlightAware (Why Join?)
  • Login
  • US Flag 
Rudolph Flight #1: Scheduled 
07:35PM EST


 

Airport Tracker/Info


-or-


 

Live Flight TrackerFlight Track Log ✈ SWA620 ✈ 22-Aug-2014 ✈ KBWI - KBUF

Flight Track Log - Related Links

Times and Time Zones

All times are in EDT time to prevent confusion due to time zone crossing. See the SWA620 flight status page for this flight to view local times or setup timezone preferences in your user account.

Time Position Orientation Groundspeed Altitude Reporting Facility
EDT Latitude Longitude Course Direction KTS MPH feet Rate Location/Type
07:04AM 39.1833 -76.7500 282° West 222 255 2,600  Level Potomac TRACON
07:06AM 39.2136 -76.9375 282° West 265 305 10,300 3,180 Climbing Washington Center
07:07AM 39.2519 -77.0261 299° West 310 357 12,900 2,940 Climbing Washington Center
07:08AM 39.3239 -77.1008 321° Northwest 331 381 16,400 3,120 Climbing Washington Center
07:09AM 39.3972 -77.1817 320° Northwest 341 392 19,400 3,060 Climbing Washington Center
07:10AM 39.4897 -77.2825 320° Northwest 358 412 22,800 3,120 Climbing Washington Center
07:11AM 39.5672 -77.3708 319° Northwest 366 421 25,800 1,500 Climbing Washington Center
07:12AM 39.6517 -77.4503 324° Northwest 372 428 26,000 60 Climbing Washington Center
07:13AM 39.7153 -77.4589 354° North 359 413 26,000  Level New York Center
07:14AM 39.8239 -77.4586 360° North 365 420 26,000  Level New York Center
07:15AM 39.9261 -77.4928 346° North 370 426 26,000 840 Level New York Center
07:16AM 40.0325 -77.5300 345° North 376 433 27,800 1,860 Climbing New York Center
07:17AM 40.1408 -77.5678 345° North 387 445 29,800 1,080 Climbing New York Center
07:18AM 40.2450 -77.6050 345° North 392 451 30,000 60 Climbing New York Center
07:19AM 40.3511 -77.6456 344° North 392 451 30,000  Level New York Center
07:20AM 40.4553 -77.6833 345° North 392 451 30,000  Level New York Center
07:21AM 40.5592 -77.7236 344° North 392 451 30,000  Level New York Center
07:22AM 40.6653 -77.7619 345° North 392 451 30,000  Level New York Center
07:23AM 40.7692 -77.8025 344° North 392 451 30,000  Level New York Center
07:25AM 40.9303 -77.8636 344° North 395 455 30,000  Level Cleveland Center
07:26AM 41.0364 -77.9042 344° North 396 456 30,000  Level Cleveland Center
07:27AM 41.1639 -77.9514 344° North 398 458 30,000 -540 Level Cleveland Center
07:28AM 41.2672 -77.9917 344° North 398 458 29,000 -1,020 Descending Cleveland Center
07:29AM 41.3683 -78.0303 344° North 385 443 28,000 -540 Descending Cleveland Center
07:30AM 41.4731 -78.0706 344° North 392 451 28,000 -240 Level Cleveland Center
07:31AM 41.5792 -78.1119 344° North 399 459 27,600 -840 Descending Cleveland Center
07:32AM 41.7067 -78.1603 344° North 399 459 26,400 -1,080 Descending Cleveland Center
07:33AM 41.8103 -78.2011 344° North 397 457 25,400 -1,020 Descending Cleveland Center
07:34AM 41.9136 -78.2408 344° North 394 453 24,300 -1,740 Descending Cleveland Center
07:35AM 42.0164 -78.2817 344° North 393 452 21,900 -2,400 Descending Cleveland Center
07:36AM 42.1158 -78.3217 343° North 382 440 19,400 -2,460 Descending Cleveland Center
07:37AM 42.2164 -78.3611 344° North 374 430 16,900 -2,700 Descending Cleveland Center
07:38AM 42.3319 -78.4061 344° North 362 417 13,900 -2,520 Descending Cleveland Center
07:39AM 42.4264 -78.4347 347° North 350 403 11,800 -1,560 Descending Cleveland Center
07:40AM 42.5178 -78.4483 354° North 337 388 10,700 -1,200 Descending Cleveland Center
07:41AM 42.5972 -78.4597 354° North 300 345 9,400 -1,440 Descending Cleveland Center
07:42AM 42.6750 -78.4722 353° North 286 329 7,800 -1,620 Descending Cleveland Center
07:43AM 42.7572 -78.4850 353° North 282 325 6,200 -1,500 Descending Cleveland Center
07:44AM 42.8347 -78.4967 354° North 273 314 4,700 -1,080 Descending Cleveland Center
07:45AM 42.9111 -78.5083 354° North 271 312 4,000 -480 Descending Cleveland Center
07:46AM 42.9853 -78.5181 355° North 263 303 3,800 -540 Descending Cleveland Center
07:47AM 43.0483 -78.5425 344° North 239 275 3,000 -780 Descending Cleveland Center
07:48AM 43.0297 -78.6125 250° West 212 244 2,300 -540 Descending Cleveland Center
07:49AM 42.9892 -78.6644 223° Southwest 194 223 1,900 -420 Descending Cleveland Center
07:50AM 42.9506 -78.7119 222° Southwest 186 214 1,500 -420 Descending Cleveland Center